KFAR

Hector International Airport

Fargo, North Dakota, USA
METAR KFAR 151314Z 08003KT 4SM -SN BR BKN038 OVC047 M07/M09 A2989 RMK AO2 P0000 T10721094
Observed Flight Rules
Dec-15 @ 13:14 UTC (33 minutes ago) Marginal Visual Flight Rules
Wind Visibility Clouds Conditions
80° at 3 knots 4 miles
  • Broken at 3,800' AGL
  • Overcast at 4,700' AGL
  • Light Snow
  • Mist
Temperatures Readings Precipitation
Current -7°C / 19°F
Dewpoint -9°C / 16°F
Humidity 86%
Altimeter 29.89" Hg
Pressure 1012 hPa
Elevation 277
Current Rain 0.005
METAR KFAR 151314Z 08003KT 4SM -SN BR BKN038 OVC047 M07/M09 A2989 RMK AO2 P0000 T10721094
Observed Flight Rules
Dec-15 @ 13:14 UTC
(33 minutes ago)
MVFR
Wind Visibility
80° at 3 knots 4 miles
Clouds
  • Broken at 3,800' AGL
  • Overcast at 4,700' AGL
Conditions
  • Light Snow
  • Mist
Temperature Dewpoint
-7°C / 19°F -9°C / 16°F
Humidity Altimeter Pressure
86% 29.89" Hg 1012 hPa
Current Rain
0.005